createdAt,value
2023-04-05T00:02:18.757Z,21.80
2023-04-05T00:07:22.123Z,21.70
2023-04-05T00:12:24.939Z,21.70
2023-04-05T00:17:29.677Z,21.60
2023-04-05T00:22:35.948Z,21.60
2023-04-05T00:27:38.770Z,21.60
2023-04-05T00:32:42.956Z,21.60
2023-04-05T00:37:45.804Z,21.60
2023-04-05T00:42:48.767Z,21.50
2023-04-05T00:47:53.360Z,21.50
2023-04-05T00:52:56.614Z,21.50
2023-04-05T00:57:59.454Z,21.50
2023-04-05T01:03:05.458Z,21.50
2023-04-05T01:08:17.323Z,21.50
2023-04-05T01:13:20.196Z,21.50
2023-04-05T01:18:25.841Z,21.40
2023-04-05T01:23:39.464Z,21.40
2023-04-05T01:29:01.078Z,21.40
2023-04-05T01:34:11.496Z,21.30
2023-04-05T01:39:18.280Z,21.30
2023-04-05T01:44:21.096Z,21.30
2023-04-05T01:49:26.402Z,21.40
2023-04-05T01:54:29.295Z,21.40
2023-04-05T01:59:32.601Z,21.40
2023-04-05T02:04:36.932Z,21.40
2023-04-05T02:09:39.749Z,21.30
2023-04-05T02:14:42.871Z,21.30
2023-04-05T02:19:47.382Z,21.30
2023-04-05T02:24:50.256Z,21.20
2023-04-05T02:29:55.698Z,21.20
2023-04-05T02:34:59.961Z,21.20
2023-04-05T02:40:03.920Z,21.20
2023-04-05T02:45:08.459Z,21.20
2023-04-05T02:50:12.782Z,21.20
2023-04-05T02:55:15.952Z,21.20
2023-04-05T03:00:19.868Z,21.10
2023-04-05T03:05:24.045Z,21.10
2023-04-05T03:10:29.190Z,21.10
2023-04-05T03:15:33.877Z,21.10
2023-04-05T03:20:40.257Z,21.10
2023-04-05T03:25:43.246Z,21.10
2023-04-05T03:30:46.478Z,21.20
2023-04-05T03:35:51.055Z,21.10
2023-04-05T03:40:53.952Z,21.10
2023-04-05T03:45:57.114Z,21.10
2023-04-05T03:51:01.858Z,21.10
2023-04-05T03:56:05.010Z,21.00
2023-04-05T04:01:07.972Z,21.00
2023-04-05T04:06:12.642Z,20.90
2023-04-05T04:11:15.584Z,20.90
2023-04-05T04:16:18.774Z,20.90
2023-04-05T04:21:24.840Z,20.90
2023-04-05T04:26:29.133Z,20.90
2023-04-05T04:31:33.667Z,21.00
2023-04-05T04:36:39.434Z,21.10
2023-04-05T04:41:47.613Z,21.20
2023-04-05T04:46:54.778Z,21.20
2023-04-05T04:51:59.568Z,21.20
2023-04-05T04:57:02.905Z,21.20
2023-04-05T05:02:05.766Z,21.20
2023-04-05T05:07:10.810Z,21.10
2023-04-05T05:12:13.594Z,21.10
2023-04-05T05:17:16.476Z,21.10
2023-04-05T05:22:20.622Z,21.10
2023-04-05T05:27:23.459Z,21.20
2023-04-05T05:32:26.335Z,21.30
2023-04-05T05:37:32.891Z,21.50
2023-04-05T05:42:35.949Z,21.50
2023-04-05T05:47:38.796Z,21.60
2023-04-05T05:52:42.990Z,21.70
2023-04-05T05:57:45.809Z,21.80
2023-04-05T06:02:48.933Z,21.80
2023-04-05T06:07:53.186Z,21.80
2023-04-05T06:12:56.037Z,21.90
2023-04-05T06:17:58.914Z,22.10
2023-04-05T06:23:03.070Z,22.20
2023-04-05T06:28:06.669Z,22.30
2023-04-05T06:33:09.487Z,22.40
2023-04-05T06:38:13.764Z,22.50
2023-04-05T06:43:16.637Z,22.50
2023-04-05T06:48:19.461Z,22.60
2023-04-05T06:53:23.600Z,22.60
2023-04-05T06:58:27.879Z,22.70
2023-04-05T07:03:30.996Z,22.70
2023-04-05T07:08:35.541Z,22.70
2023-04-05T07:13:38.328Z,22.70
2023-04-05T07:18:41.145Z,22.70
2023-04-05T07:23:45.557Z,22.80
2023-04-05T07:28:48.464Z,22.80
2023-04-05T07:33:51.290Z,22.90
2023-04-05T07:38:55.757Z,22.90
2023-04-05T07:43:59.142Z,22.90
2023-04-05T07:49:01.974Z,22.90
2023-04-05T07:54:07.590Z,22.90
2023-04-05T07:59:11.864Z,22.90
2023-04-05T08:04:15.781Z,22.80
2023-04-05T08:09:19.951Z,22.80
2023-04-05T08:14:22.806Z,22.80
2023-04-05T08:19:25.642Z,22.70
2023-04-05T08:24:29.859Z,22.70
2023-04-05T08:29:32.715Z,22.60
2023-04-05T08:34:35.696Z,22.60
2023-04-05T08:39:39.883Z,22.50
2023-04-05T08:44:42.923Z,22.50
2023-04-05T08:49:46.182Z,22.40
2023-04-05T08:54:51.071Z,22.40
2023-04-05T08:59:55.497Z,22.30
2023-04-05T09:04:59.567Z,22.30
2023-04-05T09:10:06.832Z,22.20
2023-04-05T09:15:09.995Z,22.20
2023-04-05T09:20:12.829Z,22.20
2023-04-05T09:25:35.589Z,22.20
2023-04-05T09:30:38.885Z,22.20
2023-04-05T09:35:42.258Z,22.30
2023-04-05T09:40:47.712Z,22.30
2023-04-05T09:45:50.782Z,22.20
2023-04-05T09:51:12.550Z,22.20
2023-04-05T09:56:17.416Z,22.20
2023-04-05T10:01:22.160Z,22.10
2023-04-05T10:06:25.119Z,22.10
2023-04-05T10:11:29.596Z,22.10
2023-04-05T10:16:35.290Z,22.00
2023-04-05T10:21:43.946Z,22.00
2023-04-05T10:26:56.114Z,22.00
2023-04-05T10:32:05.581Z,21.90
2023-04-05T10:37:09.625Z,21.90
2023-04-05T10:42:20.525Z,21.90
2023-04-05T10:47:27.639Z,21.80
2023-04-05T10:52:31.243Z,21.80
2023-04-05T10:57:36.260Z,21.80
2023-04-05T11:02:39.599Z,21.80
2023-04-05T11:07:44.965Z,21.80
2023-04-05T11:13:10.040Z,21.80
2023-04-05T11:18:21.884Z,21.80
2023-04-05T11:23:25.937Z,21.80
2023-04-05T11:28:39.450Z,21.80
2023-04-05T11:34:10.136Z,21.70
2023-04-05T11:39:26.450Z,21.70
2023-04-05T11:44:34.620Z,21.70
2023-04-05T11:49:38.210Z,21.60
2023-04-05T11:54:45.830Z,21.60
2023-04-05T11:59:51.722Z,21.60
2023-04-05T12:04:58.706Z,21.60
2023-04-05T12:10:04.650Z,21.60
2023-04-05T12:15:11.720Z,21.60
2023-04-05T12:20:16.294Z,21.60
2023-04-05T12:25:20.037Z,21.60
2023-04-05T12:30:24.918Z,21.50
2023-04-05T12:35:34.796Z,21.50
2023-04-05T12:40:38.670Z,21.50
2023-04-05T12:45:44.221Z,21.50
2023-04-05T12:50:48.688Z,21.60
2023-04-05T12:55:53.422Z,21.50
2023-04-05T13:00:57.856Z,21.60
2023-04-05T13:06:00.763Z,21.50
2023-04-05T13:11:03.637Z,21.50
2023-04-05T13:16:08.268Z,21.50
2023-04-05T13:21:11.477Z,21.40
2023-04-05T13:26:14.351Z,21.40
2023-04-05T13:31:18.587Z,21.40
2023-04-05T13:36:21.514Z,21.40
2023-04-05T13:41:24.358Z,21.50
2023-04-05T13:46:28.559Z,21.50
2023-04-05T13:51:34.285Z,21.50
2023-04-05T13:56:37.105Z,21.40
2023-04-05T14:01:41.312Z,21.40
2023-04-05T14:06:44.217Z,21.40
2023-04-05T14:11:47.165Z,21.50
2023-04-05T14:16:51.510Z,21.60
2023-04-05T14:21:54.482Z,21.80
2023-04-05T14:26:58.784Z,21.80
2023-04-05T14:32:03.651Z,21.80
2023-04-05T14:37:06.730Z,21.80
2023-04-05T14:42:09.678Z,21.80
2023-04-05T14:47:13.856Z,21.80
2023-04-05T14:52:16.715Z,21.80
2023-04-05T14:57:19.573Z,21.90
2023-04-05T15:02:23.891Z,22.00
2023-04-05T15:07:26.731Z,22.10
2023-04-05T15:12:29.611Z,22.10
2023-04-05T15:17:33.840Z,22.20
2023-04-05T15:22:40.742Z,22.20
2023-04-05T15:27:43.702Z,22.20
2023-04-05T15:32:47.906Z,22.20
2023-04-05T15:37:50.831Z,22.20
2023-04-05T15:42:55.345Z,22.30
2023-04-05T15:47:59.885Z,22.40
2023-04-05T15:53:03.168Z,22.60
2023-04-05T15:58:06.227Z,22.70
2023-04-05T16:03:11.567Z,22.80
2023-04-05T16:08:14.599Z,23.10
2023-04-05T16:13:17.556Z,23.50
2023-04-05T16:18:22.147Z,24.10
2023-04-05T16:23:25.023Z,24.60
2023-04-05T16:28:27.852Z,24.90
2023-04-05T16:33:32.013Z,25.10
2023-04-05T16:38:34.871Z,25.20
2023-04-05T16:43:37.770Z,25.20
2023-04-05T16:48:42.032Z,25.10
2023-04-05T16:53:44.958Z,25.00
2023-04-05T16:58:48.336Z,25.00
2023-04-05T17:03:52.850Z,25.00
2023-04-05T17:08:55.853Z,25.00
2023-04-05T17:13:59.542Z,24.90
2023-04-05T17:19:03.910Z,25.00
2023-04-05T17:24:07.406Z,25.20
2023-04-05T17:29:10.266Z,25.30
2023-04-05T17:34:16.389Z,25.40
2023-04-05T17:39:19.223Z,25.40
2023-04-05T17:44:22.053Z,25.40
2023-04-05T17:49:26.272Z,25.40
2023-04-05T17:54:30.019Z,25.40
2023-04-05T17:59:32.930Z,25.40
2023-04-05T18:04:37.586Z,25.40
2023-04-05T18:09:43.353Z,25.40
2023-04-05T18:14:46.244Z,25.40
2023-04-05T18:19:50.798Z,25.40
2023-04-05T18:24:53.683Z,25.40
2023-04-05T18:29:56.499Z,25.40
2023-04-05T18:35:01.028Z,25.40
2023-04-05T18:40:04.650Z,25.40
2023-04-05T18:45:08.101Z,25.30
2023-04-05T18:50:12.791Z,25.30
2023-04-05T18:55:16.216Z,25.30
2023-04-05T19:00:19.461Z,25.40
2023-04-05T19:05:23.733Z,25.50
2023-04-05T19:10:26.601Z,25.50
2023-04-05T19:15:29.433Z,25.40
2023-04-05T19:20:33.627Z,25.40
2023-04-05T19:25:36.727Z,25.30
2023-04-05T19:30:40.362Z,25.20
2023-04-05T19:35:44.711Z,25.20
2023-04-05T19:40:47.498Z,25.20
2023-04-05T19:45:53.276Z,25.10
2023-04-05T19:50:59.704Z,25.10
2023-04-05T19:56:02.951Z,25.00
2023-04-05T20:01:07.865Z,25.00
2023-04-05T20:06:13.353Z,25.00
2023-04-05T20:11:18.465Z,24.90
2023-04-05T20:16:26.644Z,24.90
2023-04-05T20:21:32.201Z,24.90
2023-04-05T20:26:35.294Z,24.90
2023-04-05T20:31:39.953Z,24.80
2023-04-05T20:36:49.117Z,24.90
2023-04-05T20:41:51.960Z,24.90
2023-04-05T20:46:57.116Z,24.90
2023-04-05T20:52:05.052Z,24.80
2023-04-05T20:57:07.969Z,24.80
2023-04-05T21:02:10.890Z,24.70
2023-04-05T21:07:15.128Z,24.70
2023-04-05T21:12:17.979Z,24.60
2023-04-05T21:17:20.811Z,24.60
2023-04-05T21:22:25.304Z,24.60
2023-04-05T21:27:28.296Z,24.50
2023-04-05T21:32:31.132Z,24.40
2023-04-05T21:37:35.466Z,24.40
2023-04-05T21:42:38.299Z,24.20
2023-04-05T21:47:41.166Z,24.10
2023-04-05T21:52:45.500Z,24.00
2023-04-05T21:57:48.347Z,23.90
2023-04-05T22:02:51.214Z,23.80
2023-04-05T22:07:55.479Z,23.70
2023-04-05T22:12:58.523Z,23.60
2023-04-05T22:18:02.444Z,23.50
2023-04-05T22:23:06.697Z,23.40
2023-04-05T22:28:09.633Z,23.30
2023-04-05T22:33:13.523Z,23.20
2023-04-05T22:38:17.707Z,23.10
2023-04-05T22:43:20.533Z,23.10
2023-04-05T22:48:23.550Z,23.00
2023-04-05T22:53:28.384Z,23.00
2023-04-05T22:58:32.818Z,22.90
2023-04-05T23:03:35.811Z,22.90
2023-04-05T23:08:40.024Z,22.80
2023-04-05T23:13:42.889Z,22.70
2023-04-05T23:18:45.733Z,22.70
2023-04-05T23:23:50.013Z,22.60
2023-04-05T23:28:52.933Z,22.60
2023-04-05T23:33:55.803Z,22.60
2023-04-05T23:39:00.990Z,22.60
2023-04-05T23:44:03.964Z,22.60
2023-04-05T23:49:07.653Z,22.50
2023-04-05T23:54:12.130Z,22.50
2023-04-05T23:59:15.637Z,22.40
